Time;durP1;ratioP1;P1;durP2;ratioP2;P2;SDS_P1;SDS_P2;PMS_P1;PMS_P2;Temp;Humidity;BMP_temperature;BMP_pressure;BME280_temperature;BME280_humidity;BME280_pressure;Samples;Min_cycle;Max_cycle;Signal;HPM_P1;HPM_P2
2024/04/07 00:00:24;;;;;;;;;;;;;;;;;;4963138;28;91901;-74
2024/04/07 00:02:50;;;;;;;;;;;;;;;;;;4962134;28;92734;-72
2024/04/07 00:05:16;;;;;;;;;;;;;;;;;;4962060;28;92747;-73
2024/04/07 00:07:41;;;;;;;;;;;;;;;;;;4993135;28;93872;-73
2024/04/07 00:10:06;;;;;;;;;;;;;;;;;;4965221;28;92867;-74
2024/04/07 00:12:31;;;;;;;;;;;;;;;;;;4961472;28;92908;-73
2024/04/07 00:14:57;;;;;;;;;;;;;;;;;;4961844;28;92949;-71
2024/04/07 00:17:22;;;;;;;;;;;;;;;;;;4961787;28;93574;-73
2024/04/07 00:19:47;;;;;;;;;;;;;;;;;;4961960;28;92951;-73
2024/04/07 00:22:12;;;;;;;;;;;;;;;;;;4961480;28;93138;-73
2024/04/07 00:24:37;;;;;;;;;;;;;;;;;;4962763;28;92766;-73
2024/04/07 00:27:03;;;;;;;;;;;;;;;;;;4963871;28;93357;-74
2024/04/07 00:29:28;;;;;;;;;;;;;;;;;;4964957;28;92551;-72
2024/04/07 00:31:53;;;;;;;;;;;;;;;;;;4967380;28;93576;-72
2024/04/07 00:34:18;;;;;;;;;;;;;;;;;;4965150;28;92897;-73
2024/04/07 00:36:43;;;;;;;;;;;;;;;;;;4964917;28;92843;-72
2024/04/07 00:39:09;;;;;;;;;;;;;;;;;;4964985;28;93210;-72
2024/04/07 00:41:34;;;;;;;;;;;;;;;;;;4964934;28;92686;-72
2024/04/07 00:43:59;;;;;;;;;;;;;;;;;;4965075;28;92807;-71
2024/04/07 00:46:25;;;;;;;;;;;;;;;;;;4964435;28;92805;-72
2024/04/07 00:48:50;;;;;;;;;;;;;;;;;;4964883;28;91961;-72
2024/04/07 00:51:16;;;;;;;;;;;;;;;;;;4967417;28;93561;-73
2024/04/07 00:53:41;;;;;;;;;;;;;;;;;;4964548;28;92986;-73
2024/04/07 00:56:07;;;;;;;;;;;;;;;;;;4995635;28;93365;-73
2024/04/07 00:58:32;;;;;;;;;;;;;;;;;;4964140;28;93738;-73
2024/04/07 01:00:57;;;;;;;;;;;;;;;;;;4964686;28;92906;-73
2024/04/07 01:03:23;;;;;;;;;;;;;;;;;;4968225;28;92957;-73
2024/04/07 01:05:48;;;;;;;;;;;;;;;;;;4963402;28;94059;-73
2024/04/07 01:08:15;;;;;;;;;;;;;;;;;;4963362;28;92623;-73
2024/04/07 01:10:41;;;;;;;;;;;;;;;;;;4964167;28;93381;-73
2024/04/07 01:13:06;;;;;;;;;;;;;;;;;;4967923;28;91773;-74
2024/04/07 01:15:35;;;;;;;;;;;;;;;;;;4964862;28;93505;-73
2024/04/07 01:18:00;;;;;;;;;;;;;;;;;;4964794;28;92867;-73
2024/04/07 01:20:29;;;;;;;;;;;;;;;;;;4963936;28;93850;-72
2024/04/07 01:22:54;;;;;;;;;;;;;;;;;;4964065;28;93402;-73
2024/04/07 01:25:20;;;;;;;;;;;;;;;;;;4960998;28;93163;-73
2024/04/07 01:27:51;;;;;;;;;;;;;;;;;;4961008;28;92938;-73
2024/04/07 01:30:16;;;;;;;;;;;;;;;;;;4963784;28;92837;-73
2024/04/07 01:32:42;;;;;;;;;;;;;;;;;;4962110;28;95674;-73
2024/04/07 01:35:07;;;;;;;;;;;;;;;;;;4966282;28;94130;-72
2024/04/07 01:37:32;;;;;;;;;;;;;;;;;;4995256;28;94843;-73
2024/04/07 01:40:02;;;;;;;;;;;;;;;;;;4963779;28;92211;-74
2024/04/07 01:42:27;;;;;;;;;;;;;;;;;;4995444;28;93810;-73
2024/04/07 01:44:53;;;;;;;;;;;;;;;;;;4964064;28;93741;-73
2024/04/07 01:47:18;;;;;;;;;;;;;;;;;;4964318;28;93319;-73
2024/04/07 01:49:43;;;;;;;;;;;;;;;;;;4964220;28;93163;-74
2024/04/07 01:52:09;;;;;;;;;;;;;;;;;;4960264;28;92904;-73
2024/04/07 01:54:34;;;;;;;;;;;;;;;;;;4964571;28;92551;-74
2024/04/07 01:56:59;;;;;;;;;;;;;;;;;;4967768;28;92650;-73
2024/04/07 01:59:25;;;;;;;;;;;;;;;;;;4964605;28;92249;-73
2024/04/07 02:01:50;;;;;;;;;;;;;;;;;;4964459;28;92695;-73
2024/04/07 02:04:15;;;;;;;;;;;;;;;;;;4964051;28;93317;-71
2024/04/07 02:06:40;;;;;;;;;;;;;;;;;;4963838;28;92209;-72
2024/04/07 02:09:06;;;;;;;;;;;;;;;;;;4963108;28;94498;-73
2024/04/07 02:11:31;;;;;;;;;;;;;;;;;;4963799;28;92817;-72
2024/04/07 02:13:57;;;;;;;;;;;;;;;;;;4963495;28;92271;-72
2024/04/07 02:16:22;;;;;;;;;;;;;;;;;;4963390;28;93733;-71
2024/04/07 02:18:49;;;;;;;;;;;;;;;;;;4966263;28;93086;-71
2024/04/07 02:21:16;;;;;;;;;;;;;;;;;;4963653;28;95024;-72
2024/04/07 02:23:42;;;;;;;;;;;;;;;;;;4964511;28;92948;-73
2024/04/07 02:26:07;;;;;;;;;;;;;;;;;;4964341;28;91901;-72
2024/04/07 02:28:33;;;;;;;;;;;;;;;;;;4963308;28;92402;-73
2024/04/07 02:30:58;;;;;;;;;;;;;;;;;;4961949;28;92949;-74
2024/04/07 02:33:25;;;;;;;;;;;;;;;;;;4957207;28;93590;-74
2024/04/07 02:35:55;;;;;;;;;;;;;;;;;;4962230;28;93304;-74
2024/04/07 02:38:21;;;;;;;;;;;;;;;;;;4962150;28;93406;-73
2024/04/07 02:40:46;;;;;;;;;;;;;;;;;;4964179;28;92929;-74
2024/04/07 02:43:11;;;;;;;;;;;;;;;;;;4959953;28;92859;-73
2024/04/07 02:48:21;;;;;;;;;;;;;;;;;;4958836;28;92688;-73
2024/04/07 02:50:46;;;;;;;;;;;;;;;;;;4959842;28;94492;-73
2024/04/07 02:53:11;;;;;;;;;;;;;;;;;;4961420;28;92751;-74
2024/04/07 02:55:37;;;;;;;;;;;;;;;;;;4960281;28;95068;-73
2024/04/07 02:58:03;;;;;;;;;;;;;;;;;;4961166;28;94087;-73
2024/04/07 03:00:28;;;;;;;;;;;;;;;;;;4991816;28;92772;-72
2024/04/07 03:02:53;;;;;;;;;;;;;;;;;;4961335;28;94070;-72
2024/04/07 03:05:18;;;;;;;;;;;;;;;;;;4961244;28;92731;-72
2024/04/07 03:07:44;;;;;;;;;;;;;;;;;;4957692;28;95209;-73
2024/04/07 03:10:10;;;;;;;;;;;;;;;;;;4961368;28;93222;-73
2024/04/07 03:12:36;;;;;;;;;;;;;;;;;;4960482;28;93972;-73
2024/04/07 03:15:03;;;;;;;;;;;;;;;;;;4962527;28;92561;-73
2024/04/07 03:17:28;;;;;;;;;;;;;;;;;;4961355;28;92998;-72
2024/04/07 03:19:53;;;;;;;;;;;;;;;;;;4961134;28;92604;-72
2024/04/07 03:22:18;;;;;;;;;;;;;;;;;;4963559;28;93496;-72
2024/04/07 03:24:44;;;;;;;;;;;;;;;;;;4961149;28;92672;-72
2024/04/07 03:27:09;;;;;;;;;;;;;;;;;;4959844;28;95309;-72
2024/04/07 03:29:34;;;;;;;;;;;;;;;;;;4961285;28;93168;-72
2024/04/07 03:31:59;;;;;;;;;;;;;;;;;;4961453;28;93338;-72
2024/04/07 03:34:25;;;;;;;;;;;;;;;;;;4961066;28;92889;-72
2024/04/07 03:36:50;;;;;;;;;;;;;;;;;;4961235;28;93181;-72
2024/04/07 03:39:16;;;;;;;;;;;;;;;;;;4962064;28;93085;-72
2024/04/07 03:41:41;;;;;;;;;;;;;;;;;;4957092;28;93202;-72
2024/04/07 03:44:08;;;;;;;;;;;;;;;;;;4959423;28;93321;-73
2024/04/07 03:46:33;;;;;;;;;;;;;;;;;;4960679;28;93436;-71
2024/04/07 03:48:58;;;;;;;;;;;;;;;;;;4961050;28;92802;-72
2024/04/07 03:51:23;;;;;;;;;;;;;;;;;;4992808;28;92553;-73
2024/04/07 03:53:48;;;;;;;;;;;;;;;;;;4960813;28;92616;-71
2024/04/07 03:56:14;;;;;;;;;;;;;;;;;;4960300;28;93591;-71
2024/04/07 03:58:39;;;;;;;;;;;;;;;;;;4959791;28;92553;-73
2024/04/07 04:01:04;;;;;;;;;;;;;;;;;;4962543;28;92941;-74
2024/04/07 04:03:29;;;;;;;;;;;;;;;;;;4964343;28;92105;-73
2024/04/07 04:05:55;;;;;;;;;;;;;;;;;;4999115;28;93150;-73
2024/04/07 04:08:20;;;;;;;;;;;;;;;;;;4964528;28;94040;-73
2024/04/07 04:10:45;;;;;;;;;;;;;;;;;;4963542;28;93300;-73
2024/04/07 04:13:11;;;;;;;;;;;;;;;;;;4995386;28;94531;-73
2024/04/07 04:15:36;;;;;;;;;;;;;;;;;;4963697;28;93101;-73
2024/04/07 04:18:04;;;;;;;;;;;;;;;;;;4963489;28;92574;-72
2024/04/07 04:20:29;;;;;;;;;;;;;;;;;;4962844;28;92779;-73
2024/04/07 04:22:54;;;;;;;;;;;;;;;;;;4963823;28;93161;-73
2024/04/07 04:25:21;;;;;;;;;;;;;;;;;;4963850;28;93239;-73
2024/04/07 04:27:46;;;;;;;;;;;;;;;;;;4967047;28;92881;-73
2024/04/07 04:30:12;;;;;;;;;;;;;;;;;;4963576;28;94291;-73
2024/04/07 04:32:37;;;;;;;;;;;;;;;;;;4963766;28;93720;-73
2024/04/07 04:35:02;;;;;;;;;;;;;;;;;;4963769;28;93791;-71
2024/04/07 04:37:28;;;;;;;;;;;;;;;;;;4963980;28;92977;-72
2024/04/07 04:39:53;;;;;;;;;;;;;;;;;;4964475;28;92921;-72
2024/04/07 04:42:18;;;;;;;;;;;;;;;;;;4963481;28;93511;-73
2024/04/07 04:44:43;;;;;;;;;;;;;;;;;;4963033;28;92827;-74
2024/04/07 04:47:08;;;;;;;;;;;;;;;;;;4966432;28;92870;-73
2024/04/07 04:49:33;;;;;;;;;;;;;;;;;;4964120;28;92874;-73
2024/04/07 04:51:59;;;;;;;;;;;;;;;;;;4964819;28;92697;-73
2024/04/07 04:54:24;;;;;;;;;;;;;;;;;;4962763;28;93203;-73
2024/04/07 04:56:50;;;;;;;;;;;;;;;;;;4963561;28;92805;-71
2024/04/07 04:59:15;;;;;;;;;;;;;;;;;;4962467;28;93898;-72
2024/04/07 05:01:40;;;;;;;;;;;;;;;;;;4963123;28;92968;-73
2024/04/07 05:04:05;;;;;;;;;;;;;;;;;;4954906;28;92712;-71
2024/04/07 05:06:30;;;;;;;;;;;;;;;;;;4954202;28;93555;-71
2024/04/07 05:08:56;;;;;;;;;;;;;;;;;;4960898;28;94149;-73
2024/04/07 05:11:21;;;;;;;;;;;;;;;;;;4959908;28;94613;-73
2024/04/07 05:13:46;;;;;;;;;;;;;;;;;;4960967;28;93430;-72
2024/04/07 05:16:13;;;;;;;;;;;;;;;;;;4960181;28;92637;-72
2024/04/07 05:18:39;;;;;;;;;;;;;;;;;;4956957;28;94770;-73
2024/04/07 05:21:08;;;;;;;;;;;;;;;;;;4958568;28;92948;-71
2024/04/07 05:23:35;;;;;;;;;;;;;;;;;;4954993;28;94478;-71
2024/04/07 05:26:07;;;;;;;;;;;;;;;;;;4959180;28;95474;-72
2024/04/07 05:28:32;;;;;;;;;;;;;;;;;;4960948;28;94200;-71
2024/04/07 05:31:00;;;;;;;;;;;;;;;;;;4957760;28;92731;-71
2024/04/07 05:33:28;;;;;;;;;;;;;;;;;;4960578;28;93791;-71
2024/04/07 05:35:53;;;;;;;;;;;;;;;;;;4958056;28;93014;-72
2024/04/07 05:38:19;;;;;;;;;;;;;;;;;;4959748;28;93544;-73
2024/04/07 05:40:51;;;;;;;;;;;;;;;;;;4958566;28;92164;-71
2024/04/07 05:43:16;;;;;;;;;;;;;;;;;;4959397;28;92768;-72
2024/04/07 05:45:42;;;;;;;;;;;;;;;;;;4957738;28;92883;-74
2024/04/07 05:48:07;;;;;;;;;;;;;;;;;;4958584;28;93749;-73
2024/04/07 05:50:32;;;;;;;;;;;;;;;;;;4959790;28;92892;-71
2024/04/07 05:52:58;;;;;;;;;;;;;;;;;;4957836;28;94779;-73
2024/04/07 05:55:23;;;;;;;;;;;;;;;;;;4959259;28;93197;-72
2024/04/07 05:57:48;;;;;;;;;;;;;;;;;;4960726;28;93040;-73
2024/04/07 06:00:14;;;;;;;;;;;;;;;;;;4965144;28;95455;-73
2024/04/07 06:02:39;;;;;;;;;;;;;;;;;;4957539;28;92390;-73
2024/04/07 06:05:05;;;;;;;;;;;;;;;;;;4956777;28;91922;-73
2024/04/07 06:07:30;;;;;;;;;;;;;;;;;;4962623;28;92982;-72
2024/04/07 06:09:55;;;;;;;;;;;;;;;;;;4962735;28;92775;-73
2024/04/07 06:12:21;;;;;;;;;;;;;;;;;;4961374;28;93239;-72
2024/04/07 06:14:46;;;;;;;;;;;;;;;;;;4964693;28;93015;-73
2024/04/07 06:17:12;;;;;;;;;;;;;;;;;;4961075;28;92607;-73
2024/04/07 06:19:37;;;;;;;;;;;;;;;;;;4960529;28;95776;-73
2024/04/07 06:22:02;;;;;;;;;;;;;;;;;;4961591;28;92742;-70
2024/04/07 06:24:28;;;;;;;;;;;;;;;;;;4960812;28;92771;-73
2024/04/07 06:26:53;;;;;;;;;;;;;;;;;;4960413;28;93394;-73
2024/04/07 06:29:18;;;;;;;;;;;;;;;;;;4960936;28;91925;-72
2024/04/07 06:31:43;;;;;;;;;;;;;;;;;;4960915;28;92618;-73
2024/04/07 06:34:09;;;;;;;;;;;;;;;;;;4961530;28;93221;-72
2024/04/07 06:36:34;;;;;;;;;;;;;;;;;;4963776;28;94155;-72
2024/04/07 06:38:59;;;;;;;;;;;;;;;;;;4960013;28;92555;-73
2024/04/07 06:41:24;;;;;;;;;;;;;;;;;;4961430;28;92978;-73
2024/04/07 06:43:50;;;;;;;;;;;;;;;;;;4961355;28;93418;-72
2024/04/07 06:46:15;;;;;;;;;;;;;;;;;;4959573;28;95276;-74
2024/04/07 06:48:40;;;;;;;;;;;;;;;;;;4961831;28;92310;-72
2024/04/07 06:51:06;;;;;;;;;;;;;;;;;;4961713;28;92981;-73
2024/04/07 06:53:31;;;;;;;;;;;;;;;;;;4962658;28;93191;-72
2024/04/07 06:55:56;;;;;;;;;;;;;;;;;;4996987;28;92426;-73
2024/04/07 06:58:21;;;;;;;;;;;;;;;;;;4961709;28;93259;-72
2024/04/07 07:00:47;;;;;;;;;;;;;;;;;;4961190;28;93804;-72
2024/04/07 07:03:12;;;;;;;;;;;;;;;;;;4961798;28;93323;-73
2024/04/07 07:05:37;;;;;;;;;;;;;;;;;;4961933;28;92707;-72
2024/04/07 07:08:03;;;;;;;;;;;;;;;;;;4965337;28;92774;-71
2024/04/07 07:10:29;;;;;;;;;;;;;;;;;;4961029;28;93456;-71
2024/04/07 07:12:54;;;;;;;;;;;;;;;;;;4960942;28;93233;-71
2024/04/07 07:15:20;;;;;;;;;;;;;;;;;;4960364;28;93812;-74
2024/04/07 07:17:45;;;;;;;;;;;;;;;;;;4962930;28;92615;-73
2024/04/07 07:20:10;;;;;;;;;;;;;;;;;;4960192;28;93136;-74
2024/04/07 07:22:36;;;;;;;;;;;;;;;;;;4961548;28;92965;-73
2024/04/07 07:25:02;;;;;;;;;;;;;;;;;;4960334;28;93862;-73
2024/04/07 07:27:27;;;;;;;;;;;;;;;;;;4961118;28;92691;-73
2024/04/07 07:29:53;;;;;;;;;;;;;;;;;;4959504;28;95221;-74
2024/04/07 07:32:18;;;;;;;;;;;;;;;;;;4992857;28;94347;-72
2024/04/07 07:34:43;;;;;;;;;;;;;;;;;;4960966;28;93359;-74
2024/04/07 07:37:09;;;;;;;;;;;;;;;;;;4960634;28;93246;-73
2024/04/07 07:39:34;;;;;;;;;;;;;;;;;;4963820;28;93356;-71
2024/04/07 07:41:59;;;;;;;;;;;;;;;;;;4959845;28;95178;-73
2024/04/07 07:44:25;;;;;;;;;;;;;;;;;;4959750;28;92979;-73
2024/04/07 07:46:50;;;;;;;;;;;;;;;;;;4960727;28;92877;-74
2024/04/07 07:49:16;;;;;;;;;;;;;;;;;;4960232;28;94159;-74
2024/04/07 07:51:41;;;;;;;;;;;;;;;;;;4960148;28;92999;-73
2024/04/07 07:54:07;;;;;;;;;;;;;;;;;;4960743;28;92753;-72
2024/04/07 07:56:32;;;;;;;;;;;;;;;;;;4960360;28;93097;-73
2024/04/07 07:58:57;;;;;;;;;;;;;;;;;;4960355;28;92978;-73
2024/04/07 08:01:22;;;;;;;;;;;;;;;;;;4962614;28;92238;-72
2024/04/07 08:03:48;;;;;;;;;;;;;;;;;;4960606;28;92968;-73
2024/04/07 08:06:13;;;;;;;;;;;;;;;;;;4960977;28;93160;-73
2024/04/07 08:08:38;;;;;;;;;;;;;;;;;;4992309;28;94360;-73
2024/04/07 08:11:03;;;;;;;;;;;;;;;;;;4960141;28;93667;-73
2024/04/07 08:13:29;;;;;;;;;;;;;;;;;;4959823;28;94462;-73
2024/04/07 08:15:54;;;;;;;;;;;;;;;;;;4959976;28;93637;-72
2024/04/07 08:18:19;;;;;;;;;;;;;;;;;;4959669;28;93222;-73
2024/04/07 08:20:44;;;;;;;;;;;;;;;;;;4957619;28;93129;-73
2024/04/07 08:23:10;;;;;;;;;;;;;;;;;;4963921;28;92931;-73
2024/04/07 08:25:36;;;;;;;;;;;;;;;;;;4960307;28;93193;-73
2024/04/07 08:28:02;;;;;;;;;;;;;;;;;;4959013;28;92832;-72
2024/04/07 08:30:27;;;;;;;;;;;;;;;;;;4960779;28;91895;-73
2024/04/07 08:32:53;;;;;;;;;;;;;;;;;;4989128;28;92311;-72
2024/04/07 08:35:18;;;;;;;;;;;;;;;;;;4957949;28;92980;-73
2024/04/07 08:37:43;;;;;;;;;;;;;;;;;;4959741;28;94326;-72
2024/04/07 08:40:08;;;;;;;;;;;;;;;;;;4960795;28;92768;-72
2024/04/07 08:42:34;;;;;;;;;;;;;;;;;;4959327;28;93097;-72
2024/04/07 08:45:01;;;;;;;;;;;;;;;;;;4963571;28;93575;-72
2024/04/07 08:47:28;;;;;;;;;;;;;;;;;;4960909;28;92998;-72
2024/04/07 08:49:53;;;;;;;;;;;;;;;;;;4963611;28;93153;-73
2024/04/07 08:52:20;;;;;;;;;;;;;;;;;;4961736;28;92728;-73
2024/04/07 08:54:46;;;;;;;;;;;;;;;;;;4961695;28;95744;-73
2024/04/07 08:57:13;;;;;;;;;;;;;;;;;;4962860;28;92945;-74
2024/04/07 08:59:39;;;;;;;;;;;;;;;;;;4965324;28;92743;-72
2024/04/07 09:02:04;;;;;;;;;;;;;;;;;;4962531;28;94282;-73
2024/04/07 09:04:32;;;;;;;;;;;;;;;;;;4965032;28;93641;-73
2024/04/07 09:06:58;;;;;;;;;;;;;;;;;;4956349;28;93341;-73
2024/04/07 09:09:23;;;;;;;;;;;;;;;;;;4961361;28;92808;-73
2024/04/07 09:11:51;;;;;;;;;;;;;;;;;;4960797;28;93438;-74
2024/04/07 09:14:17;;;;;;;;;;;;;;;;;;4962310;28;93569;-74
2024/04/07 09:16:42;;;;;;;;;;;;;;;;;;4962051;28;92911;-74
2024/04/07 09:19:07;;;;;;;;;;;;;;;;;;4960453;28;91952;-73
2024/04/07 09:21:33;;;;;;;;;;;;;;;;;;4961999;28;92747;-73
2024/04/07 09:23:58;;;;;;;;;;;;;;;;;;4962528;28;92920;-73
2024/04/07 09:26:24;;;;;;;;;;;;;;;;;;4964265;28;93682;-74
2024/04/07 09:28:49;;;;;;;;;;;;;;;;;;4961987;28;93713;-73
2024/04/07 09:31:14;;;;;;;;;;;;;;;;;;4962569;28;93407;-73
2024/04/07 09:33:41;;;;;;;;;;;;;;;;;;4962410;28;93388;-75
2024/04/07 09:36:06;;;;;;;;;;;;;;;;;;4959954;28;94424;-72
2024/04/07 09:38:32;;;;;;;;;;;;;;;;;;4961661;28;92967;-74
2024/04/07 09:40:58;;;;;;;;;;;;;;;;;;4963327;28;92779;-74
2024/04/07 09:43:24;;;;;;;;;;;;;;;;;;4962784;28;92134;-73
2024/04/07 09:45:51;;;;;;;;;;;;;;;;;;4960592;28;94628;-73
2024/04/07 09:48:19;;;;;;;;;;;;;;;;;;4964894;28;95155;-74
2024/04/07 09:50:44;;;;;;;;;;;;;;;;;;4960422;28;93787;-73
2024/04/07 09:53:18;;;;;;;;;;;;;;;;;;4962218;28;93423;-72
2024/04/07 09:55:44;;;;;;;;;;;;;;;;;;4962431;28;92965;-73
2024/04/07 09:58:11;;;;;;;;;;;;;;;;;;4963072;28;92772;-75
2024/04/07 10:00:37;;;;;;;;;;;;;;;;;;4962288;28;92895;-73
2024/04/07 10:03:04;;;;;;;;;;;;;;;;;;4959909;28;96406;-73
2024/04/07 10:05:30;;;;;;;;;;;;;;;;;;4962103;28;92689;-72
2024/04/07 10:07:56;;;;;;;;;;;;;;;;;;4963066;28;93230;-72
2024/04/07 10:10:25;;;;;;;;;;;;;;;;;;4964766;28;92798;-74
2024/04/07 10:12:50;;;;;;;;;;;;;;;;;;4962628;28;93632;-72
2024/04/07 10:15:19;;;;;;;;;;;;;;;;;;4961296;28;93799;-74
2024/04/07 10:17:45;;;;;;;;;;;;;;;;;;4961880;28;92915;-73
2024/04/07 10:20:12;;;;;;;;;;;;;;;;;;4961960;28;94330;-73
2024/04/07 10:22:37;;;;;;;;;;;;;;;;;;4962454;28;92893;-72
2024/04/07 10:25:05;;;;;;;;;;;;;;;;;;4962090;28;92960;-72
2024/04/07 10:27:31;;;;;;;;;;;;;;;;;;4961284;28;92970;-73
2024/04/07 10:29:58;;;;;;;;;;;;;;;;;;4961674;28;92841;-73
2024/04/07 10:32:27;;;;;;;;;;;;;;;;;;4965357;28;92251;-73
2024/04/07 10:35:04;;;;;;;;;;;;;;;;;;4960753;28;93903;-73
2024/04/07 10:37:33;;;;;;;;;;;;;;;;;;4961232;28;93903;-73
2024/04/07 10:40:00;;;;;;;;;;;;;;;;;;4961325;28;93936;-74
2024/04/07 10:42:26;;;;;;;;;;;;;;;;;;4960389;28;93045;-73
2024/04/07 10:44:52;;;;;;;;;;;;;;;;;;4959298;28;93168;-73
2024/04/07 10:47:18;;;;;;;;;;;;;;;;;;4961244;28;93241;-73
2024/04/07 10:49:43;;;;;;;;;;;;;;;;;;4958239;28;92783;-73
2024/04/07 10:52:12;;;;;;;;;;;;;;;;;;4955594;27;93096;-72
2024/04/07 10:54:37;;;;;;;;;;;;;;;;;;4943832;28;92690;-73
2024/04/07 10:57:03;;;;;;;;;;;;;;;;;;4939187;28;92404;-73
2024/04/07 10:59:28;;;;;;;;;;;;;;;;;;4940252;28;92944;-73
2024/04/07 11:01:53;;;;;;;;;;;;;;;;;;4940295;28;94502;-72
2024/04/07 11:04:19;;;;;;;;;;;;;;;;;;4939368;28;93619;-72
2024/04/07 11:06:44;;;;;;;;;;;;;;;;;;4940049;28;94680;-73
2024/04/07 11:09:09;;;;;;;;;;;;;;;;;;4940683;28;93032;-74
2024/04/07 11:11:34;;;;;;;;;;;;;;;;;;4940141;28;93450;-73
2024/04/07 11:13:59;;;;;;;;;;;;;;;;;;4942323;28;92713;-73
2024/04/07 11:16:25;;;;;;;;;;;;;;;;;;4940411;28;93185;-74
2024/04/07 11:18:50;;;;;;;;;;;;;;;;;;4942459;28;93519;-73
2024/04/07 11:21:17;;;;;;;;;;;;;;;;;;4938877;28;93446;-73
2024/04/07 11:23:42;;;;;;;;;;;;;;;;;;4941770;28;92680;-73
2024/04/07 11:26:08;;;;;;;;;;;;;;;;;;4941922;28;93533;-73
2024/04/07 11:28:33;;;;;;;;;;;;;;;;;;4940870;28;94058;-73
2024/04/07 11:30:58;;;;;;;;;;;;;;;;;;4941855;28;92512;-73
2024/04/07 11:33:24;;;;;;;;;;;;;;;;;;4941742;28;93667;-73
2024/04/07 11:35:50;;;;;;;;;;;;;;;;;;4943258;28;93604;-73
2024/04/07 11:38:15;;;;;;;;;;;;;;;;;;4941165;28;92938;-73
2024/04/07 11:40:41;;;;;;;;;;;;;;;;;;4941057;28;92951;-73
2024/04/07 11:43:06;;;;;;;;;;;;;;;;;;4941165;28;93096;-73
2024/04/07 11:45:31;;;;;;;;;;;;;;;;;;4941095;28;92676;-72
2024/04/07 11:47:59;;;;;;;;;;;;;;;;;;4941593;28;92955;-71
2024/04/07 11:50:24;;;;;;;;;;;;;;;;;;4940892;28;93447;-71
2024/04/07 11:52:50;;;;;;;;;;;;;;;;;;4940376;28;93378;-71
2024/04/07 11:55:15;;;;;;;;;;;;;;;;;;4940521;28;93488;-71
2024/04/07 11:57:40;;;;;;;;;;;;;;;;;;4929179;28;93498;-73
2024/04/07 12:00:09;;;;;;;;;;;;;;;;;;4937691;28;92677;-73
2024/04/07 12:02:34;;;;;;;;;;;;;;;;;;4941100;28;92591;-73
2024/04/07 12:05:01;;;;;;;;;;;;;;;;;;4941415;28;92649;-73
2024/04/07 12:07:26;;;;;;;;;;;;;;;;;;4941138;28;93246;-73
2024/04/07 12:09:51;;;;;;;;;;;;;;;;;;4940664;28;91831;-73
2024/04/07 12:12:17;;;;;;;;;;;;;;;;;;4940627;28;93112;-72
2024/04/07 12:14:42;;;;;;;;;;;;;;;;;;4941171;28;92581;-73
2024/04/07 12:17:07;;;;;;;;;;;;;;;;;;4940771;28;93739;-72
2024/04/07 12:19:32;;;;;;;;;;;;;;;;;;4943572;28;93160;-73
2024/04/07 12:21:58;;;;;;;;;;;;;;;;;;4939506;28;92756;-73
2024/04/07 12:24:24;;;;;;;;;;;;;;;;;;4942672;28;92686;-72
2024/04/07 12:26:52;;;;;;;;;;;;;;;;;;4944810;28;92832;-73
2024/04/07 12:29:19;;;;;;;;;;;;;;;;;;4943902;28;92904;-73
2024/04/07 12:31:44;;;;;;;;;;;;;;;;;;4945084;28;92602;-72
2024/04/07 12:34:09;;;;;;;;;;;;;;;;;;4945211;28;92143;-72
2024/04/07 12:36:37;;;;;;;;;;;;;;;;;;4943322;28;92310;-72
2024/04/07 12:39:08;;;;;;;;;;;;;;;;;;4943858;28;92576;-73
2024/04/07 12:41:37;;;;;;;;;;;;;;;;;;4944991;28;96451;-73
2024/04/07 12:44:02;;;;;;;;;;;;;;;;;;4975387;28;95938;-74
2024/04/07 12:46:27;;;;;;;;;;;;;;;;;;4943362;28;93237;-73
2024/04/07 12:48:52;;;;;;;;;;;;;;;;;;4974561;28;93932;-72
2024/04/07 12:51:18;;;;;;;;;;;;;;;;;;4946888;28;92656;-72
2024/04/07 12:53:43;;;;;;;;;;;;;;;;;;4941655;28;92985;-72
2024/04/07 12:56:09;;;;;;;;;;;;;;;;;;4944446;28;92600;-72
2024/04/07 12:58:35;;;;;;;;;;;;;;;;;;4975845;28;93744;-73
2024/04/07 13:01:00;;;;;;;;;;;;;;;;;;4944221;28;92988;-73
2024/04/07 13:03:26;;;;;;;;;;;;;;;;;;4942613;28;93416;-72
2024/04/07 13:05:52;;;;;;;;;;;;;;;;;;4942423;28;93962;-71
2024/04/07 13:08:17;;;;;;;;;;;;;;;;;;4942304;28;92904;-72
2024/04/07 13:10:42;;;;;;;;;;;;;;;;;;4942993;28;92450;-72
2024/04/07 13:13:08;;;;;;;;;;;;;;;;;;4942877;28;92778;-73
2024/04/07 13:15:33;;;;;;;;;;;;;;;;;;4943535;28;92651;-74
2024/04/07 13:17:58;;;;;;;;;;;;;;;;;;4942940;28;93004;-73
2024/04/07 13:20:24;;;;;;;;;;;;;;;;;;4943048;28;92962;-73
2024/04/07 13:22:49;;;;;;;;;;;;;;;;;;4947088;28;92377;-73
2024/04/07 13:25:14;;;;;;;;;;;;;;;;;;4943128;28;93483;-72
2024/04/07 13:27:39;;;;;;;;;;;;;;;;;;4943872;28;92872;-72
2024/04/07 13:30:05;;;;;;;;;;;;;;;;;;4942710;28;93726;-71
2024/04/07 13:32:30;;;;;;;;;;;;;;;;;;4943146;28;95203;-73
2024/04/07 13:34:55;;;;;;;;;;;;;;;;;;4945971;28;93685;-72
2024/04/07 13:37:21;;;;;;;;;;;;;;;;;;4945953;28;92891;-73
2024/04/07 13:39:48;;;;;;;;;;;;;;;;;;4942930;28;92904;-73
2024/04/07 13:42:13;;;;;;;;;;;;;;;;;;4940208;28;92957;-72
2024/04/07 13:44:38;;;;;;;;;;;;;;;;;;4944545;28;92649;-72
2024/04/07 13:47:04;;;;;;;;;;;;;;;;;;4943665;28;91523;-71
2024/04/07 13:49:30;;;;;;;;;;;;;;;;;;4943273;28;93533;-72
2024/04/07 13:51:55;;;;;;;;;;;;;;;;;;4943108;28;92875;-72
2024/04/07 13:54:21;;;;;;;;;;;;;;;;;;4942824;28;93562;-73
2024/04/07 13:56:46;;;;;;;;;;;;;;;;;;4943629;28;93385;-72
2024/04/07 13:59:11;;;;;;;;;;;;;;;;;;4940234;28;93772;-72
2024/04/07 14:01:37;;;;;;;;;;;;;;;;;;4943169;28;92908;-72
2024/04/07 14:04:02;;;;;;;;;;;;;;;;;;4934298;28;92617;-73
2024/04/07 14:06:27;;;;;;;;;;;;;;;;;;4945268;28;93175;-72
2024/04/07 14:08:53;;;;;;;;;;;;;;;;;;4942319;28;92824;-72
2024/04/07 14:11:18;;;;;;;;;;;;;;;;;;4942823;28;92150;-73
2024/04/07 14:13:44;;;;;;;;;;;;;;;;;;4942422;28;92637;-72
2024/04/07 14:16:09;;;;;;;;;;;;;;;;;;4942794;28;93157;-73
2024/04/07 14:18:35;;;;;;;;;;;;;;;;;;4941329;28;94725;-73
2024/04/07 14:21:00;;;;;;;;;;;;;;;;;;4957251;28;93558;-73
2024/04/07 14:23:26;;;;;;;;;;;;;;;;;;4944736;28;93692;-72
2024/04/07 14:25:51;;;;;;;;;;;;;;;;;;4950333;28;93733;-73
2024/04/07 14:28:16;;;;;;;;;;;;;;;;;;4952801;28;92532;-72
2024/04/07 14:30:42;;;;;;;;;;;;;;;;;;4944695;28;92862;-73
2024/04/07 14:33:07;;;;;;;;;;;;;;;;;;4942635;28;92904;-71
2024/04/07 14:35:32;;;;;;;;;;;;;;;;;;4941619;28;92507;-74
2024/04/07 14:37:58;;;;;;;;;;;;;;;;;;4936938;28;93541;-73
2024/04/07 14:40:23;;;;;;;;;;;;;;;;;;4939099;28;93386;-71
2024/04/07 14:42:49;;;;;;;;;;;;;;;;;;4938320;28;94581;-73
2024/04/07 14:45:14;;;;;;;;;;;;;;;;;;4938466;28;92527;-73
2024/04/07 14:47:39;;;;;;;;;;;;;;;;;;4941741;28;93250;-73
2024/04/07 14:50:04;;;;;;;;;;;;;;;;;;4946137;28;93128;-73
2024/04/07 14:52:30;;;;;;;;;;;;;;;;;;4941595;28;92597;-73
2024/04/07 14:54:55;;;;;;;;;;;;;;;;;;4942014;28;93801;-73
2024/04/07 14:57:20;;;;;;;;;;;;;;;;;;4942168;28;94816;-74
2024/04/07 14:59:51;;;;;;;;;;;;;;;;;;4971861;28;92995;-75
2024/04/07 15:02:17;;;;;;;;;;;;;;;;;;4940267;28;92594;-73
2024/04/07 15:04:42;;;;;;;;;;;;;;;;;;4938385;28;92914;-74
2024/04/07 15:07:07;;;;;;;;;;;;;;;;;;4940490;28;93700;-74
2024/04/07 15:09:35;;;;;;;;;;;;;;;;;;4944237;28;93431;-73
2024/04/07 15:12:01;;;;;;;;;;;;;;;;;;4941089;28;93617;-74
2024/04/07 15:14:26;;;;;;;;;;;;;;;;;;4937292;28;92778;-73
2024/04/07 15:16:51;;;;;;;;;;;;;;;;;;4942164;28;92834;-74
2024/04/07 15:19:19;;;;;;;;;;;;;;;;;;4941969;28;93838;-72
2024/04/07 15:21:44;;;;;;;;;;;;;;;;;;4933469;28;93625;-71
2024/04/07 15:24:10;;;;;;;;;;;;;;;;;;4973660;28;94512;-72
2024/04/07 15:26:36;;;;;;;;;;;;;;;;;;4940758;28;93471;-71
2024/04/07 15:29:01;;;;;;;;;;;;;;;;;;4934805;28;92980;-71
2024/04/07 15:31:26;;;;;;;;;;;;;;;;;;4939747;28;93762;-72
2024/04/07 15:33:52;;;;;;;;;;;;;;;;;;4938448;28;93349;-73
2024/04/07 15:36:17;;;;;;;;;;;;;;;;;;4969862;28;94049;-71
2024/04/07 15:38:43;;;;;;;;;;;;;;;;;;4930440;28;92714;-73
2024/04/07 15:41:08;;;;;;;;;;;;;;;;;;4941375;28;92998;-74
2024/04/07 15:43:33;;;;;;;;;;;;;;;;;;4941414;28;92604;-74
2024/04/07 15:45:58;;;;;;;;;;;;;;;;;;4936748;28;92696;-74
2024/04/07 15:48:24;;;;;;;;;;;;;;;;;;4941727;28;92611;-75
2024/04/07 15:50:50;;;;;;;;;;;;;;;;;;4941203;28;93076;-74
2024/04/07 15:53:16;;;;;;;;;;;;;;;;;;4943406;28;93845;-73
2024/04/07 15:55:46;;;;;;;;;;;;;;;;;;4939989;28;93815;-70
2024/04/07 15:58:11;;;;;;;;;;;;;;;;;;4940712;28;92924;-71
2024/04/07 16:00:40;;;;;;;;;;;;;;;;;;4941308;28;92657;-70
2024/04/07 16:03:05;;;;;;;;;;;;;;;;;;4936999;28;94265;-69
2024/04/07 16:05:30;;;;;;;;;;;;;;;;;;4938023;28;94402;-71
2024/04/07 16:07:56;;;;;;;;;;;;;;;;;;4940135;28;92987;-73
2024/04/07 16:10:21;;;;;;;;;;;;;;;;;;4943874;28;92951;-72
2024/04/07 16:12:46;;;;;;;;;;;;;;;;;;4945711;28;91919;-70
2024/04/07 16:15:11;;;;;;;;;;;;;;;;;;4942437;28;93973;-73
2024/04/07 16:17:40;;;;;;;;;;;;;;;;;;4939972;28;93518;-73
2024/04/07 16:20:06;;;;;;;;;;;;;;;;;;4939882;28;94207;-72
2024/04/07 16:22:31;;;;;;;;;;;;;;;;;;4939941;28;92829;-74
2024/04/07 16:24:56;;;;;;;;;;;;;;;;;;4940733;28;92671;-74
2024/04/07 16:27:24;;;;;;;;;;;;;;;;;;4940104;28;92657;-72
2024/04/07 16:29:50;;;;;;;;;;;;;;;;;;4940249;28;93337;-70
2024/04/07 16:32:15;;;;;;;;;;;;;;;;;;4940614;28;94129;-75
2024/04/07 16:34:41;;;;;;;;;;;;;;;;;;4939830;28;92780;-71
2024/04/07 16:37:06;;;;;;;;;;;;;;;;;;4941877;28;92636;-73